Santa Ana, CA (92707)

9:42 AM PST on December 04, 2016 (GMT -0800)
Santa Ana - South Coast Metro | | Change Station

Elev 73 ft 33.72 °N, 117.86 °W | Updated 2 seconds ago

Clear
Clear
61.3 °F
Feels Like 61.3 °F
N
1.1
Wind Variable Wind from SE
Gusts 2.0 mph

Today
High -- | Low -- °F
--% Chance of Precip.
Yesterday
High -- | Low -- °F
Precip. -- in
Pressure 30.09 in
Visibility 10.0 miles
Clouds Clear
Dew Point 44 °F
Humidity 53%
Rainfall 0.00 in
Snow Depth Not available.
6:41 AM 4:42 PM
Waxing Crescent, 24% visible
METAR KSNA 041653Z 00000KT 10SM CLR 13/00 A3009 RMK AO2 SLP188 T01330000
Pressure 30.09 in
Visibility 10.0 miles
Clouds Clear
Dew Point 44 °F
Humidity 53%
Rainfall 0.00 in
Snow Depth Not available.
6:41 AM 4:42 PM
Waxing Crescent, 24% visible
METAR KSNA 041653Z 00000KT 10SM CLR 13/00 A3009 RMK AO2 SLP188 T01330000

10-Day Weather Forecast

Almanac

Astronomy

Dec. 04, 2016 Rise Set
Actual Time
Civil Twilight
Nautical Twilight
Astronomical Twilight
Moon
Length of Visible Light
Length of Day
Tomorrow will be .
, % of the Moon is Illuminated

Today's Extremes

State Highs State Lows

Community

WunderPhotos

Upload Photos

1,955,635 photos uploaded!

WunderBlog® & News

Nearby

Air Quality

  Air Quality AQ Index Pollutant
Not available.

Snow Depth

Station Depth Elevation

Earthquake Activity

City Distance Mag. Time & Date
Minimum magnitude displayed is 2.5.

Coastal Water Temperatures

Place Temperature

Stations

Nearby Weather Stations

Station Location Temp. Windchill Dew Point Humidity Wind Precip. Elev Updated Type
                   

Watches & Warnings

There are currently no watches in effect.